Terminal Aerodrome Forecast
Issued by NWS

Home | Current Version | Previous Version | Graphics & Text | Print | Product List | Glossary On
Versions: 1 2 3 4 5 6 7 8 9 10 11 12 13 14 15 16 17 18 19 20 21 22
000
FTUS43 KICT 240445 AAB
TAFHUT
TAF AMD
KHUT 240445Z 2405/2424 15013KT P6SM OVC017
     FM240800 15013KT P6SM OVC007
     FM241000 15009KT 3SM -DZ BR OVC005
     FM241400 18017KT P6SM OVC008
     FM241600 18017G22KT P6SM SCT015 BKN150=

USA.gov is the U.S. government's official web portal to all federal, state and local government web resources and services.